createdAt,value
2023-05-14T00:01:36.610Z,24.33
2023-05-14T00:04:04.271Z,21.63
2023-05-14T00:06:32.066Z,22.08
2023-05-14T00:08:59.496Z,23.88
2023-05-14T00:11:26.872Z,27.80
2023-05-14T00:13:54.382Z,24.88
2023-05-14T00:16:21.771Z,26.40
2023-05-14T00:18:49.539Z,21.90
2023-05-14T00:21:17.365Z,20.40
2023-05-14T00:23:44.870Z,26.08
2023-05-14T00:26:12.303Z,26.02
2023-05-14T00:28:40.595Z,27.67
2023-05-14T00:31:08.507Z,29.23
2023-05-14T00:33:36.316Z,25.25
2023-05-14T00:36:04.224Z,23.05
2023-05-14T00:38:32.153Z,26.90
2023-05-14T00:40:59.514Z,24.42
2023-05-14T00:43:27.005Z,22.50
2023-05-14T00:45:54.878Z,22.60
2023-05-14T00:48:22.718Z,21.77
2023-05-14T00:50:50.171Z,21.58
2023-05-14T00:53:20.908Z,20.98
2023-05-14T00:55:49.274Z,21.35
2023-05-14T00:58:16.852Z,21.67
2023-05-14T01:00:44.337Z,18.95
2023-05-14T01:03:11.983Z,21.65
2023-05-14T01:05:46.015Z,17.88
2023-05-14T01:08:17.276Z,22.75
2023-05-14T01:10:49.372Z,19.02
2023-05-14T01:13:29.008Z,18.42
2023-05-14T01:15:57.829Z,18.67
2023-05-14T01:18:25.535Z,16.17
2023-05-14T01:20:53.837Z,16.27
2023-05-14T01:23:21.375Z,16.60
2023-05-14T01:25:49.032Z,14.70
2023-05-14T01:28:20.553Z,18.77
2023-05-14T01:30:58.283Z,14.82
2023-05-14T01:33:26.384Z,17.95
2023-05-14T01:35:54.667Z,20.45
2023-05-14T01:38:22.387Z,24.20
2023-05-14T01:40:51.124Z,18.30
2023-05-14T01:43:18.825Z,17.88
2023-05-14T01:45:46.405Z,18.48
2023-05-14T01:48:13.916Z,17.02
2023-05-14T01:50:41.467Z,16.13
2023-05-14T01:53:08.826Z,15.90
2023-05-14T01:55:36.633Z,20.13
2023-05-14T01:58:04.680Z,13.68
2023-05-14T02:00:33.294Z,14.13
2023-05-14T02:03:00.779Z,13.18
2023-05-14T02:05:28.515Z,15.30
2023-05-14T02:07:56.784Z,17.42
2023-05-14T02:10:24.442Z,16.27
2023-05-14T02:12:52.330Z,16.10
2023-05-14T02:15:20.048Z,14.02
2023-05-14T02:17:47.818Z,19.55
2023-05-14T02:20:15.805Z,16.60
2023-05-14T02:22:46.147Z,17.10
2023-05-14T02:25:13.622Z,16.90
2023-05-14T02:27:41.402Z,19.55
2023-05-14T02:30:09.813Z,18.67
2023-05-14T02:32:38.818Z,19.50
2023-05-14T02:35:06.990Z,17.95
2023-05-14T02:37:34.950Z,19.17
2023-05-14T02:40:02.474Z,19.17
2023-05-14T02:42:30.344Z,17.30
2023-05-14T02:44:57.854Z,17.23
2023-05-14T02:47:25.357Z,21.58
2023-05-14T02:49:53.107Z,18.77
2023-05-14T02:52:21.362Z,20.73
2023-05-14T02:54:49.179Z,16.92
2023-05-14T02:57:16.893Z,19.25
2023-05-14T02:59:44.486Z,20.35
2023-05-14T03:02:12.382Z,18.08
2023-05-14T03:04:40.449Z,20.33
2023-05-14T03:07:07.857Z,19.27
2023-05-14T03:09:38.104Z,18.75
2023-05-14T03:12:07.815Z,25.38
2023-05-14T03:14:35.911Z,19.25
2023-05-14T03:17:04.135Z,22.20
2023-05-14T03:19:32.565Z,18.88
2023-05-14T03:22:00.234Z,20.52
2023-05-14T03:24:27.814Z,15.50
2023-05-14T03:26:55.983Z,20.23
2023-05-14T03:29:23.505Z,20.42
2023-05-14T03:31:51.125Z,18.15
2023-05-14T03:34:18.641Z,17.98
2023-05-14T03:36:46.300Z,20.08
2023-05-14T03:39:19.683Z,18.20
2023-05-14T03:41:47.861Z,14.10
2023-05-14T03:44:15.712Z,17.88
2023-05-14T03:46:43.229Z,27.80
2023-05-14T03:49:10.962Z,21.27
2023-05-14T03:51:38.582Z,18.48
2023-05-14T03:54:06.890Z,18.33
2023-05-14T03:56:35.763Z,17.30
2023-05-14T03:59:03.791Z,17.05
2023-05-14T04:01:33.448Z,19.17
2023-05-14T04:04:00.935Z,19.83
2023-05-14T04:06:28.464Z,16.55
2023-05-14T04:08:55.812Z,19.70
2023-05-14T04:11:23.307Z,15.65
2023-05-14T04:13:50.976Z,14.27
2023-05-14T04:16:18.426Z,19.25
2023-05-14T04:18:46.875Z,16.88
2023-05-14T04:21:15.613Z,31.33
2023-05-14T04:23:43.013Z,17.88
2023-05-14T04:26:10.364Z,14.32
2023-05-14T04:28:37.716Z,15.07
2023-05-14T04:31:05.614Z,15.27
2023-05-14T04:33:33.192Z,16.50
2023-05-14T04:36:01.120Z,17.02
2023-05-14T04:38:32.120Z,17.20
2023-05-14T04:40:59.488Z,20.77
2023-05-14T04:43:26.915Z,23.95
2023-05-14T04:45:57.407Z,24.40
2023-05-14T04:48:24.920Z,18.73
2023-05-14T04:51:07.912Z,16.27
2023-05-14T04:53:36.195Z,24.05
2023-05-14T04:56:03.818Z,18.25
2023-05-14T04:58:34.611Z,23.05
2023-05-14T05:01:05.143Z,15.85
2023-05-14T05:03:32.676Z,20.55
2023-05-14T05:06:00.455Z,21.52
2023-05-14T05:08:28.754Z,26.15
2023-05-14T05:10:59.180Z,25.23
2023-05-14T05:13:26.910Z,36.05
2023-05-14T05:15:54.366Z,19.55
2023-05-14T05:18:22.278Z,19.63
2023-05-14T05:20:50.418Z,15.02
2023-05-14T05:23:19.214Z,8.63
2023-05-14T05:25:46.712Z,10.10
2023-05-14T05:28:14.626Z,8.23
2023-05-14T05:30:42.301Z,8.07
2023-05-14T05:33:09.940Z,13.82
2023-05-14T05:35:37.881Z,16.67
2023-05-14T05:38:05.873Z,13.32
2023-05-14T05:40:34.048Z,10.85
2023-05-14T05:43:01.504Z,12.80
2023-05-14T05:45:28.956Z,14.00
2023-05-14T05:47:56.516Z,17.08
2023-05-14T05:50:24.762Z,16.58
2023-05-14T05:52:53.001Z,19.00
2023-05-14T05:55:20.640Z,13.52
2023-05-14T05:57:48.227Z,17.77
2023-05-14T06:00:16.973Z,19.52
2023-05-14T06:02:44.733Z,16.15
2023-05-14T06:05:12.725Z,12.70
2023-05-14T06:07:40.592Z,18.25
2023-05-14T06:10:08.459Z,14.68
2023-05-14T06:12:36.141Z,11.15
2023-05-14T06:15:03.726Z,10.40
2023-05-14T06:17:31.925Z,8.35
2023-05-14T06:19:59.508Z,10.07
2023-05-14T06:22:27.144Z,9.13
2023-05-14T06:24:54.657Z,9.77
2023-05-14T06:27:22.090Z,6.93
2023-05-14T06:29:50.295Z,8.65
2023-05-14T06:32:17.779Z,7.07
2023-05-14T06:34:46.022Z,10.15
2023-05-14T06:37:13.479Z,7.78
2023-05-14T06:39:44.180Z,6.15
2023-05-14T06:42:11.776Z,11.15
2023-05-14T06:44:39.520Z,5.07
2023-05-14T06:47:08.551Z,5.47
2023-05-14T06:49:36.575Z,11.05
2023-05-14T06:52:04.078Z,9.60
2023-05-14T06:54:31.541Z,8.45
2023-05-14T06:56:58.940Z,8.32
2023-05-14T06:59:26.482Z,13.45
2023-05-14T07:01:53.951Z,9.95
2023-05-14T07:04:21.330Z,10.65
2023-05-14T07:06:48.785Z,7.43
2023-05-14T07:09:16.177Z,9.43
2023-05-14T07:11:43.658Z,13.35
2023-05-14T07:14:11.138Z,13.40
2023-05-14T07:16:38.841Z,24.17
2023-05-14T07:19:06.311Z,19.90
2023-05-14T07:21:34.496Z,15.65
2023-05-14T07:24:02.186Z,17.05
2023-05-14T07:26:30.504Z,10.23
2023-05-14T07:28:57.892Z,7.05
2023-05-14T07:31:25.431Z,6.55
2023-05-14T07:33:53.104Z,8.85
2023-05-14T07:36:20.582Z,7.57
2023-05-14T07:38:48.058Z,6.80
2023-05-14T07:41:15.517Z,5.82
2023-05-14T07:43:42.836Z,9.30
2023-05-14T07:46:10.366Z,4.82
2023-05-14T07:48:37.763Z,6.10
2023-05-14T07:51:05.183Z,6.32
2023-05-14T07:53:32.831Z,10.68
2023-05-14T07:56:00.282Z,4.40
2023-05-14T07:58:28.902Z,5.60
2023-05-14T08:00:57.636Z,6.85
2023-05-14T08:03:25.335Z,9.70
2023-05-14T08:05:52.812Z,4.07
2023-05-14T08:08:20.197Z,6.40
2023-05-14T08:10:47.623Z,6.32
2023-05-14T08:13:15.109Z,9.32
2023-05-14T08:15:42.624Z,7.78
2023-05-14T08:18:10.184Z,7.03
2023-05-14T08:20:38.536Z,4.10
2023-05-14T08:23:07.405Z,7.45
2023-05-14T08:25:34.947Z,6.18
2023-05-14T08:28:02.394Z,4.97
2023-05-14T08:30:30.113Z,3.83
2023-05-14T08:32:58.389Z,6.45
2023-05-14T08:35:25.959Z,6.55
2023-05-14T08:37:53.493Z,5.70
2023-05-14T08:40:21.450Z,5.68
2023-05-14T08:42:49.010Z,6.65
2023-05-14T08:45:16.340Z,4.80
2023-05-14T08:47:49.341Z,6.00
2023-05-14T08:50:17.277Z,5.65
2023-05-14T08:52:44.796Z,5.22
2023-05-14T08:55:13.459Z,9.25
2023-05-14T08:57:41.143Z,4.22
2023-05-14T09:00:11.924Z,7.82
2023-05-14T09:02:41.882Z,4.72
2023-05-14T09:05:09.907Z,5.75
2023-05-14T09:07:37.798Z,3.67
2023-05-14T09:10:08.952Z,3.63
2023-05-14T09:12:36.546Z,6.88
2023-05-14T09:15:04.875Z,4.55
2023-05-14T09:17:32.888Z,4.07
2023-05-14T09:20:00.667Z,7.93
2023-05-14T09:22:29.227Z,7.93
2023-05-14T09:25:04.861Z,6.13
2023-05-14T09:27:34.762Z,8.82
2023-05-14T09:30:12.374Z,6.55
2023-05-14T09:32:48.286Z,7.93
2023-05-14T09:35:20.642Z,9.05
2023-05-14T09:37:54.743Z,7.13
2023-05-14T09:40:24.124Z,9.57
2023-05-14T09:42:52.120Z,8.02
2023-05-14T09:45:19.557Z,7.15
2023-05-14T09:47:47.000Z,7.05
2023-05-14T09:50:14.527Z,5.95
2023-05-14T09:52:42.411Z,12.48
2023-05-14T09:55:10.253Z,5.22
2023-05-14T09:57:38.165Z,9.98
2023-05-14T10:00:06.819Z,5.80
2023-05-14T10:02:38.049Z,7.90
2023-05-14T10:05:06.501Z,3.13
2023-05-14T10:07:46.833Z,6.68
2023-05-14T10:10:16.674Z,8.00
2023-05-14T10:12:45.971Z,3.92
2023-05-14T10:15:22.561Z,5.22
2023-05-14T10:17:55.280Z,6.47
2023-05-14T10:20:23.315Z,6.68
2023-05-14T10:22:51.020Z,5.70
2023-05-14T10:25:18.813Z,7.90
2023-05-14T10:27:46.516Z,9.90
2023-05-14T10:30:14.569Z,7.22
2023-05-14T10:32:44.340Z,9.38
2023-05-14T10:35:20.908Z,6.20
2023-05-14T10:37:51.500Z,9.38
2023-05-14T10:40:19.478Z,6.75
2023-05-14T10:42:47.362Z,7.60
2023-05-14T10:45:15.465Z,11.77
2023-05-14T10:47:43.822Z,8.20
2023-05-14T10:50:12.569Z,7.28
2023-05-14T10:52:44.067Z,8.07
2023-05-14T10:55:15.537Z,6.32
2023-05-14T10:57:46.404Z,7.40
2023-05-14T11:00:14.722Z,5.05
2023-05-14T11:02:43.784Z,10.32
2023-05-14T11:05:16.028Z,5.68
2023-05-14T11:07:53.972Z,6.07
2023-05-14T11:10:22.249Z,6.70
2023-05-14T11:12:51.057Z,6.25
2023-05-14T11:15:19.367Z,23.30
2023-05-14T11:17:47.405Z,12.63
2023-05-14T11:20:15.091Z,20.35
2023-05-14T11:22:43.371Z,10.35
2023-05-14T11:25:11.454Z,25.23
2023-05-14T11:27:39.464Z,19.95
2023-05-14T11:30:14.203Z,20.20
2023-05-14T11:32:44.355Z,10.77
2023-05-14T11:35:12.186Z,9.20
2023-05-14T11:37:40.330Z,5.43
2023-05-14T11:40:12.622Z,7.20
2023-05-14T11:42:40.224Z,7.88
2023-05-14T11:45:12.006Z,9.52
2023-05-14T11:47:41.683Z,9.55
2023-05-14T11:50:09.938Z,7.28
2023-05-14T11:52:41.036Z,7.32
2023-05-14T11:55:12.862Z,8.77
2023-05-14T11:57:41.172Z,6.25
2023-05-14T12:00:11.208Z,8.27
2023-05-14T12:02:38.959Z,4.65
2023-05-14T12:05:07.517Z,5.70
2023-05-14T12:07:36.046Z,9.98
2023-05-14T12:10:04.019Z,8.20
2023-05-14T12:12:35.239Z,4.90
2023-05-14T12:15:02.775Z,4.60
2023-05-14T12:17:31.420Z,3.47
2023-05-14T12:19:59.022Z,4.20
2023-05-14T12:22:26.553Z,9.63
2023-05-14T12:24:57.962Z,8.55
2023-05-14T12:27:26.650Z,4.95
2023-05-14T12:30:19.999Z,4.00
2023-05-14T12:32:52.718Z,6.30
2023-05-14T12:35:21.614Z,6.32
2023-05-14T12:37:49.473Z,3.30
2023-05-14T12:40:17.260Z,5.00
2023-05-14T12:42:44.844Z,5.32
2023-05-14T12:45:12.380Z,3.50
2023-05-14T12:47:40.231Z,2.30
2023-05-14T12:50:08.065Z,2.90
2023-05-14T12:52:39.165Z,2.63
2023-05-14T12:55:08.908Z,2.70
2023-05-14T12:57:37.319Z,3.88
2023-05-14T13:00:08.614Z,6.28
2023-05-14T13:02:42.863Z,6.43
2023-05-14T13:07:39.513Z,6.00
2023-05-14T13:10:08.326Z,8.07
2023-05-14T13:12:36.202Z,6.00
2023-05-14T13:15:04.024Z,4.05
2023-05-14T13:17:31.973Z,5.75
2023-05-14T13:19:59.572Z,6.68
2023-05-14T13:22:27.045Z,7.13
2023-05-14T13:24:54.521Z,10.20
2023-05-14T13:27:22.017Z,7.30
2023-05-14T13:29:49.513Z,8.13
2023-05-14T13:32:17.044Z,4.40
2023-05-14T13:34:44.590Z,4.90
2023-05-14T13:37:12.207Z,4.78
2023-05-14T13:39:41.143Z,7.35
2023-05-14T13:42:08.909Z,8.98
2023-05-14T13:44:36.445Z,3.67
2023-05-14T13:47:04.357Z,4.30
2023-05-14T13:49:31.911Z,5.40
2023-05-14T13:51:59.529Z,7.68
2023-05-14T13:54:27.320Z,4.50
2023-05-14T13:56:54.838Z,5.38
2023-05-14T13:59:23.731Z,3.60
2023-05-14T14:01:51.766Z,6.60
2023-05-14T14:04:20.059Z,4.65
2023-05-14T14:06:47.630Z,7.68
2023-05-14T14:09:15.196Z,2.83
2023-05-14T14:11:42.760Z,3.28
2023-05-14T14:14:10.421Z,7.30
2023-05-14T14:16:38.396Z,5.80
2023-05-14T14:19:06.842Z,7.35
2023-05-14T14:21:35.434Z,7.32
2023-05-14T14:24:02.992Z,4.25
2023-05-14T14:26:30.622Z,5.70
2023-05-14T14:28:58.752Z,5.68
2023-05-14T14:31:26.253Z,7.30
2023-05-14T14:33:53.794Z,9.65
2023-05-14T14:36:21.368Z,6.10
2023-05-14T14:38:49.001Z,4.88
2023-05-14T14:41:16.610Z,5.07
2023-05-14T14:43:44.177Z,6.35
2023-05-14T14:46:11.643Z,9.88
2023-05-14T14:48:41.442Z,5.47
2023-05-14T14:51:09.092Z,6.32
2023-05-14T14:53:37.182Z,6.78
2023-05-14T14:56:05.109Z,4.18
2023-05-14T14:58:32.914Z,6.63
2023-05-14T15:01:01.221Z,10.20
2023-05-14T15:03:29.423Z,8.38
2023-05-14T15:05:57.059Z,11.38
2023-05-14T15:08:26.559Z,14.65
2023-05-14T15:10:55.016Z,9.95
2023-05-14T15:13:22.519Z,8.55
2023-05-14T15:15:50.723Z,12.68
2023-05-14T15:18:18.336Z,14.05
2023-05-14T15:20:46.173Z,8.90
2023-05-14T15:23:13.763Z,10.68
2023-05-14T15:25:41.235Z,9.95
2023-05-14T15:28:08.993Z,8.77
2023-05-14T15:30:36.558Z,13.32
2023-05-14T15:33:04.223Z,9.73
2023-05-14T15:35:32.035Z,10.75
2023-05-14T15:37:59.879Z,8.68
2023-05-14T15:40:27.752Z,9.90
2023-05-14T15:42:55.967Z,12.52
2023-05-14T15:45:23.581Z,14.57
2023-05-14T15:47:51.272Z,9.63
2023-05-14T15:50:19.052Z,12.68
2023-05-14T15:52:46.672Z,11.38
2023-05-14T15:55:14.196Z,6.63
2023-05-14T15:57:41.794Z,8.88
2023-05-14T16:00:11.159Z,8.75
2023-05-14T16:02:39.379Z,6.72
2023-05-14T16:05:07.597Z,6.38
2023-05-14T16:07:36.475Z,7.47
2023-05-14T16:10:04.369Z,6.32
2023-05-14T16:12:32.330Z,15.43
2023-05-14T16:15:00.187Z,13.73
2023-05-14T16:17:28.227Z,18.02
2023-05-14T16:19:56.574Z,17.20
2023-05-14T16:22:24.226Z,17.10
2023-05-14T16:24:51.830Z,16.52
2023-05-14T16:27:19.361Z,18.90
2023-05-14T16:29:46.862Z,12.85
2023-05-14T16:32:14.334Z,42.60
2023-05-14T16:34:41.967Z,20.35
2023-05-14T16:37:10.784Z,14.98
2023-05-14T16:39:40.060Z,18.08
2023-05-14T16:42:07.687Z,15.95
2023-05-14T16:44:35.251Z,12.40
2023-05-14T16:47:02.824Z,9.20
2023-05-14T16:49:30.426Z,9.13
2023-05-14T16:51:58.297Z,15.82
2023-05-14T16:54:25.900Z,10.05
2023-05-14T16:56:53.421Z,12.45
2023-05-14T16:59:20.929Z,11.45
2023-05-14T17:01:48.633Z,6.90
2023-05-14T17:04:16.399Z,8.40
2023-05-14T17:06:44.148Z,9.77
2023-05-14T17:09:11.603Z,13.13
2023-05-14T17:11:39.089Z,13.23
2023-05-14T17:14:06.916Z,6.45
2023-05-14T17:16:34.528Z,10.73
2023-05-14T17:19:02.106Z,8.05
2023-05-14T17:21:29.748Z,15.50
2023-05-14T17:23:57.456Z,11.27
2023-05-14T17:26:24.977Z,10.10
2023-05-14T17:28:52.652Z,12.05
2023-05-14T17:31:21.833Z,13.10
2023-05-14T17:33:49.540Z,11.10
2023-05-14T17:36:17.138Z,13.40
2023-05-14T17:38:44.616Z,9.82
2023-05-14T17:41:12.402Z,9.65
2023-05-14T17:43:39.838Z,7.85
2023-05-14T17:46:07.590Z,7.18
2023-05-14T17:48:35.222Z,5.30
2023-05-14T17:51:02.669Z,7.53
2023-05-14T17:53:30.393Z,8.50
2023-05-14T17:55:58.024Z,8.85
2023-05-14T17:58:25.656Z,11.55
2023-05-14T18:00:53.569Z,6.85
2023-05-14T18:03:21.450Z,9.80
2023-05-14T18:05:49.315Z,11.80
2023-05-14T18:08:17.304Z,9.43
2023-05-14T18:10:44.735Z,9.10
2023-05-14T18:13:12.402Z,10.93
2023-05-14T18:15:40.031Z,9.80
2023-05-14T18:18:07.601Z,9.20
2023-05-14T18:20:35.642Z,8.63
2023-05-14T18:23:03.621Z,7.60
2023-05-14T18:25:31.141Z,7.75
2023-05-14T18:27:59.164Z,7.03
2023-05-14T18:30:27.309Z,7.25
2023-05-14T18:32:54.901Z,8.07
2023-05-14T18:35:22.586Z,5.90
2023-05-14T18:37:50.102Z,7.28
2023-05-14T18:40:18.889Z,9.70
2023-05-14T18:42:46.793Z,6.03
2023-05-14T18:45:14.595Z,7.60
2023-05-14T18:47:42.054Z,6.35
2023-05-14T18:50:09.767Z,3.97
2023-05-14T18:52:38.292Z,5.28
2023-05-14T18:55:06.123Z,5.68
2023-05-14T18:57:34.094Z,9.63
2023-05-14T19:00:05.236Z,4.55
2023-05-14T19:02:35.110Z,8.98
2023-05-14T19:05:05.093Z,6.78
2023-05-14T19:07:33.123Z,8.05
2023-05-14T19:10:00.725Z,6.53
2023-05-14T19:12:28.586Z,5.13
2023-05-14T19:14:56.140Z,6.90
2023-05-14T19:17:24.658Z,7.03
2023-05-14T19:19:52.191Z,6.70
2023-05-14T19:22:25.762Z,4.75
2023-05-14T19:24:55.005Z,8.70
2023-05-14T19:27:24.181Z,4.22
2023-05-14T19:29:51.736Z,7.43
2023-05-14T19:32:19.554Z,6.57
2023-05-14T19:34:48.425Z,17.70
2023-05-14T19:37:17.022Z,17.80
2023-05-14T19:39:47.030Z,8.68
2023-05-14T19:42:14.502Z,6.00
2023-05-14T19:44:42.369Z,7.70
2023-05-14T19:47:10.029Z,6.88
2023-05-14T19:49:37.800Z,6.85
2023-05-14T19:52:05.821Z,6.72
2023-05-14T19:54:33.835Z,9.63
2023-05-14T19:57:01.568Z,9.52
2023-05-14T19:59:29.937Z,6.05
2023-05-14T20:01:57.652Z,6.68
2023-05-14T20:04:26.127Z,7.07
2023-05-14T20:06:53.715Z,9.27
2023-05-14T20:09:21.259Z,7.65
2023-05-14T20:11:48.762Z,12.73
2023-05-14T20:14:16.268Z,7.70
2023-05-14T20:16:43.848Z,8.25
2023-05-14T20:19:12.129Z,11.20
2023-05-14T20:21:39.774Z,9.50
2023-05-14T20:24:07.480Z,10.43
2023-05-14T20:26:35.140Z,8.90
2023-05-14T20:29:02.701Z,15.10
2023-05-14T20:31:31.134Z,12.05
2023-05-14T20:33:58.762Z,7.90
2023-05-14T20:36:26.199Z,8.48
2023-05-14T20:38:53.730Z,11.57
2023-05-14T20:41:22.295Z,11.95
2023-05-14T20:43:49.782Z,12.07
2023-05-14T20:46:18.839Z,15.68
2023-05-14T20:48:47.965Z,16.70
2023-05-14T20:51:15.755Z,13.07
2023-05-14T20:53:43.485Z,11.85
2023-05-14T20:56:11.029Z,13.98
2023-05-14T20:58:39.064Z,17.48
2023-05-14T21:01:08.179Z,12.35
2023-05-14T21:03:37.357Z,18.80
2023-05-14T21:06:05.215Z,15.73
2023-05-14T21:08:34.985Z,19.70
2023-05-14T21:11:02.596Z,17.80
2023-05-14T21:13:30.765Z,33.20
2023-05-14T21:16:00.264Z,33.58
2023-05-14T21:18:30.829Z,31.50
2023-05-14T21:20:58.848Z,32.22
2023-05-14T21:23:26.541Z,33.80
2023-05-14T21:25:55.009Z,31.60
2023-05-14T21:28:22.715Z,42.28
2023-05-14T21:30:50.674Z,36.10
2023-05-14T21:33:18.105Z,36.95
2023-05-14T21:35:45.653Z,35.72
2023-05-14T21:38:13.235Z,31.02
2023-05-14T21:40:40.820Z,29.58
2023-05-14T21:43:08.516Z,27.10
2023-05-14T21:45:36.102Z,20.65
2023-05-14T21:48:03.841Z,25.88
2023-05-14T21:50:31.566Z,25.55
2023-05-14T21:52:59.110Z,27.92
2023-05-14T21:55:27.733Z,29.92
2023-05-14T21:57:55.910Z,27.13
2023-05-14T22:00:24.271Z,23.60
2023-05-14T22:02:54.993Z,25.95
2023-05-14T22:05:22.602Z,21.77
2023-05-14T22:07:50.297Z,19.90
2023-05-14T22:10:18.106Z,19.02
2023-05-14T22:12:46.109Z,19.65
2023-05-14T22:15:13.577Z,26.65
2023-05-14T22:17:41.820Z,19.30
2023-05-14T22:20:12.077Z,26.20
2023-05-14T22:22:39.903Z,21.13
2023-05-14T22:25:07.996Z,22.83
2023-05-14T22:27:36.510Z,20.25
2023-05-14T22:30:04.925Z,16.20
2023-05-14T22:32:33.379Z,19.42
2023-05-14T22:35:01.826Z,17.55
2023-05-14T22:37:29.347Z,17.17
2023-05-14T22:39:56.910Z,16.63
2023-05-14T22:42:24.581Z,19.13
2023-05-14T22:44:52.038Z,18.65
2023-05-14T22:47:19.658Z,19.38
2023-05-14T22:49:47.143Z,19.17
2023-05-14T22:52:14.542Z,17.60
2023-05-14T22:54:42.530Z,18.77
2023-05-14T22:57:10.010Z,20.35
2023-05-14T22:59:39.478Z,21.42
2023-05-14T23:02:07.222Z,22.27
2023-05-14T23:04:35.339Z,19.77
2023-05-14T23:07:02.763Z,31.13
2023-05-14T23:09:30.381Z,35.15
2023-05-14T23:11:57.879Z,28.60
2023-05-14T23:14:25.767Z,46.65
2023-05-14T23:16:53.285Z,52.83
2023-05-14T23:19:21.832Z,37.50
2023-05-14T23:21:49.346Z,55.65
2023-05-14T23:24:16.947Z,47.20
2023-05-14T23:26:44.428Z,44.53
2023-05-14T23:29:11.761Z,37.55
2023-05-14T23:31:41.083Z,34.25
2023-05-14T23:34:08.652Z,36.65
2023-05-14T23:36:36.165Z,43.13
2023-05-14T23:39:03.815Z,39.05
2023-05-14T23:41:31.853Z,36.92
2023-05-14T23:43:59.510Z,28.98
2023-05-14T23:46:27.275Z,29.65
2023-05-14T23:48:57.089Z,36.25
2023-05-14T23:51:24.744Z,31.15
2023-05-14T23:53:56.385Z,31.38
2023-05-14T23:56:24.882Z,34.97
2023-05-14T23:58:52.645Z,33.47
